createdAt,value
2017-12-13T00:01:29.679Z,8.90
2017-12-13T00:03:57.772Z,8.50
2017-12-13T00:06:25.831Z,9.82
2017-12-13T00:08:53.916Z,9.35
2017-12-13T00:11:21.992Z,10.20
2017-12-13T00:13:50.077Z,8.93
2017-12-13T00:16:18.904Z,10.10
2017-12-13T00:18:46.991Z,10.05
2017-12-13T00:21:15.064Z,10.60
2017-12-13T00:23:43.923Z,9.75
2017-12-13T00:26:12.007Z,9.43
2017-12-13T00:28:40.083Z,9.90
2017-12-13T00:31:08.175Z,9.82
2017-12-13T00:33:36.257Z,10.55
2017-12-13T00:36:04.319Z,10.10
2017-12-13T00:38:32.686Z,10.10
2017-12-13T00:41:00.748Z,9.60
2017-12-13T00:43:28.815Z,11.12
2017-12-13T00:45:57.007Z,10.25
2017-12-13T00:48:25.066Z,10.52
2017-12-13T00:50:53.151Z,10.00
2017-12-13T00:53:21.224Z,10.88
2017-12-13T00:55:49.309Z,10.18
2017-12-13T00:58:17.480Z,11.75
2017-12-13T01:00:45.548Z,11.52
2017-12-13T01:03:14.422Z,11.95
2017-12-13T01:05:42.486Z,11.30
2017-12-13T01:08:10.549Z,11.82
2017-12-13T01:10:38.627Z,12.48
2017-12-13T01:13:06.699Z,13.85
2017-12-13T01:15:34.771Z,12.75
2017-12-13T01:18:02.838Z,13.68
2017-12-13T01:20:30.912Z,13.93
2017-12-13T01:22:59.191Z,14.40
2017-12-13T01:25:27.257Z,13.52
2017-12-13T01:27:55.329Z,12.00
2017-12-13T01:30:23.389Z,12.45
2017-12-13T01:32:51.479Z,13.88
2017-12-13T01:35:19.534Z,11.73
2017-12-13T01:37:47.634Z,12.05
2017-12-13T01:40:15.803Z,10.52
2017-12-13T01:42:43.861Z,10.90
2017-12-13T01:45:11.938Z,9.88
2017-12-13T01:47:39.994Z,10.70
2017-12-13T01:50:08.062Z,9.77
2017-12-13T01:52:36.130Z,11.88
2017-12-13T01:55:04.203Z,10.05
2017-12-13T01:57:32.973Z,11.45
2017-12-13T02:00:01.051Z,10.60
2017-12-13T02:02:29.138Z,10.45
2017-12-13T02:04:57.215Z,9.60
2017-12-13T02:07:25.281Z,11.20
2017-12-13T02:09:53.346Z,11.65
2017-12-13T02:12:21.824Z,12.02
2017-12-13T02:14:49.902Z,11.38
2017-12-13T02:17:17.979Z,11.10
2017-12-13T02:19:46.067Z,11.88
2017-12-13T02:22:15.019Z,11.15
2017-12-13T02:24:43.116Z,12.57
2017-12-13T02:27:11.192Z,12.35
2017-12-13T02:29:40.260Z,12.30
2017-12-13T02:32:08.334Z,12.48
2017-12-13T02:34:37.317Z,12.43
2017-12-13T02:37:05.396Z,13.00
2017-12-13T02:39:33.453Z,13.07
2017-12-13T02:42:01.527Z,13.90
2017-12-13T02:44:29.608Z,12.85
2017-12-13T02:46:57.708Z,13.90
2017-12-13T02:49:25.777Z,13.80
2017-12-13T02:51:53.846Z,13.70
2017-12-13T02:54:21.921Z,14.02
2017-12-13T02:56:49.993Z,14.32
2017-12-13T02:59:18.060Z,13.85
2017-12-13T03:01:46.134Z,14.80
2017-12-13T03:04:14.209Z,13.25
2017-12-13T03:06:43.050Z,11.40
2017-12-13T03:09:11.106Z,11.52
2017-12-13T03:11:39.192Z,13.57
2017-12-13T03:14:07.468Z,12.27
2017-12-13T03:16:35.572Z,11.23
2017-12-13T03:19:03.648Z,12.60
2017-12-13T03:21:31.749Z,11.30
2017-12-13T03:24:00.580Z,12.45
2017-12-13T03:26:28.654Z,12.70
2017-12-13T03:28:56.726Z,11.65
2017-12-13T03:31:24.799Z,11.05
2017-12-13T03:33:52.963Z,12.32
2017-12-13T03:36:21.035Z,11.90
2017-12-13T03:38:49.109Z,12.63
2017-12-13T03:41:17.187Z,12.07
2017-12-13T03:43:45.455Z,10.80
2017-12-13T03:46:13.532Z,13.90
2017-12-13T03:48:41.607Z,12.43
2017-12-13T03:51:09.678Z,11.95
2017-12-13T03:53:37.746Z,14.32
2017-12-13T03:56:05.824Z,10.65
2017-12-13T03:58:33.893Z,11.75
2017-12-13T04:01:01.971Z,11.52
2017-12-13T04:03:30.045Z,9.45
2017-12-13T04:05:58.141Z,10.82
2017-12-13T04:08:26.231Z,11.18
2017-12-13T04:10:54.298Z,10.60
2017-12-13T04:13:22.370Z,10.25
2017-12-13T04:15:50.444Z,10.77
2017-12-13T04:18:19.261Z,11.75
2017-12-13T04:20:47.325Z,10.38
2017-12-13T04:23:15.382Z,10.88
2017-12-13T04:25:43.463Z,10.63
2017-12-13T04:28:11.533Z,9.57
2017-12-13T04:30:39.631Z,10.70
2017-12-13T04:33:07.705Z,9.85
2017-12-13T04:35:35.858Z,9.38
2017-12-13T04:38:03.930Z,11.12
2017-12-13T04:40:32.004Z,9.85
2017-12-13T04:43:00.895Z,10.90
2017-12-13T04:45:28.967Z,9.77
2017-12-13T04:47:57.039Z,10.60
2017-12-13T04:50:25.090Z,9.57
2017-12-13T04:52:53.155Z,10.38
2017-12-13T04:55:21.226Z,9.27
2017-12-13T04:57:49.299Z,9.40
2017-12-13T05:00:17.370Z,10.73
2017-12-13T05:02:45.438Z,10.55
2017-12-13T05:05:14.206Z,9.43
2017-12-13T05:07:42.266Z,10.55
2017-12-13T05:10:10.379Z,9.43
2017-12-13T05:12:38.451Z,10.23
2017-12-13T05:15:06.520Z,10.52
2017-12-13T05:17:34.594Z,9.30
2017-12-13T05:20:02.679Z,11.50
2017-12-13T05:22:30.777Z,11.60
2017-12-13T05:24:59.602Z,12.30
2017-12-13T05:27:27.679Z,11.07
2017-12-13T05:29:55.768Z,10.60
2017-12-13T05:32:24.411Z,11.18
2017-12-13T05:34:52.495Z,10.10
2017-12-13T05:37:20.604Z,12.18
2017-12-13T05:39:48.670Z,11.45
2017-12-13T05:42:16.738Z,11.88
2017-12-13T05:44:44.911Z,11.00
2017-12-13T05:47:13.043Z,11.75
2017-12-13T05:49:41.256Z,11.48
2017-12-13T05:52:09.331Z,11.90
2017-12-13T05:54:37.442Z,12.20
2017-12-13T05:57:06.274Z,10.82
2017-12-13T05:59:34.365Z,12.20
2017-12-13T06:02:02.423Z,10.75
2017-12-13T06:04:30.506Z,11.40
2017-12-13T06:06:58.567Z,12.27
2017-12-13T06:09:26.645Z,12.45
2017-12-13T06:11:55.558Z,11.30
2017-12-13T06:14:24.395Z,12.25
2017-12-13T06:16:52.466Z,10.63
2017-12-13T06:19:20.559Z,11.75
2017-12-13T06:21:48.626Z,11.70
2017-12-13T06:24:16.698Z,10.80
2017-12-13T06:26:44.806Z,10.95
2017-12-13T06:29:14.422Z,11.45
2017-12-13T06:31:42.485Z,11.85
2017-12-13T06:34:11.321Z,10.98
2017-12-13T06:36:39.932Z,11.88
2017-12-13T06:39:08.008Z,11.73
2017-12-13T06:41:36.154Z,11.93
2017-12-13T06:44:04.287Z,12.95
2017-12-13T06:46:32.505Z,11.82
2017-12-13T06:49:00.698Z,11.30
2017-12-13T06:51:28.780Z,10.63
2017-12-13T06:53:56.854Z,12.43
2017-12-13T06:56:25.691Z,13.13
2017-12-13T06:58:53.989Z,13.38
2017-12-13T07:01:22.064Z,12.75
2017-12-13T07:03:50.160Z,12.45
2017-12-13T07:06:18.995Z,13.85
2017-12-13T07:08:47.058Z,14.15
2017-12-13T07:11:15.164Z,11.80
2017-12-13T07:13:43.936Z,13.30
2017-12-13T07:16:12.003Z,12.45
2017-12-13T07:18:40.079Z,12.88
2017-12-13T07:21:09.042Z,13.98
2017-12-13T07:23:37.140Z,13.98
2017-12-13T07:26:05.206Z,14.52
2017-12-13T07:28:33.288Z,13.18
2017-12-13T07:31:01.360Z,11.25
2017-12-13T07:33:29.430Z,12.07
2017-12-13T07:35:57.503Z,10.95
2017-12-13T07:38:25.572Z,10.80
2017-12-13T07:40:54.412Z,11.35
2017-12-13T07:43:22.544Z,10.70
2017-12-13T07:45:50.620Z,10.10
2017-12-13T07:48:18.783Z,10.02
2017-12-13T07:50:46.859Z,10.32
2017-12-13T07:53:14.915Z,8.90
2017-12-13T07:55:43.002Z,8.63
2017-12-13T07:58:11.066Z,10.32
2017-12-13T08:00:39.136Z,8.25
2017-12-13T08:03:07.199Z,9.30
2017-12-13T08:05:35.291Z,8.40
2017-12-13T08:08:05.047Z,8.43
2017-12-13T08:10:33.156Z,8.23
2017-12-13T08:13:01.236Z,7.37
2017-12-13T08:15:29.303Z,8.05
2017-12-13T08:17:57.375Z,7.45
2017-12-13T08:20:25.441Z,7.60
2017-12-13T08:22:53.511Z,7.03
2017-12-13T08:25:21.586Z,7.12
2017-12-13T08:27:49.633Z,6.40
2017-12-13T08:30:17.706Z,6.10
2017-12-13T08:32:46.271Z,6.00
2017-12-13T08:35:14.338Z,6.82
2017-12-13T08:37:42.405Z,5.40
2017-12-13T08:40:10.471Z,6.37
2017-12-13T08:42:39.488Z,6.45
2017-12-13T08:45:07.562Z,5.15
2017-12-13T08:47:35.636Z,6.93
2017-12-13T08:50:03.698Z,5.45
2017-12-13T08:52:31.779Z,5.93
2017-12-13T08:54:59.838Z,5.65
2017-12-13T08:57:27.919Z,5.90
2017-12-13T08:59:56.085Z,7.07
2017-12-13T09:02:24.258Z,5.65
2017-12-13T09:04:52.434Z,5.35
2017-12-13T09:07:21.423Z,7.32
2017-12-13T09:09:49.489Z,6.30
2017-12-13T09:12:17.580Z,5.68
2017-12-13T09:14:45.638Z,5.28
2017-12-13T09:17:13.710Z,6.15
2017-12-13T09:19:41.781Z,5.55
2017-12-13T09:22:09.839Z,5.10
2017-12-13T09:24:37.915Z,5.82
2017-12-13T09:27:05.977Z,5.45
2017-12-13T09:29:34.063Z,4.93
2017-12-13T09:32:02.120Z,4.82
2017-12-13T09:34:30.207Z,4.80
2017-12-13T09:36:58.634Z,4.85
2017-12-13T09:39:27.574Z,4.40
2017-12-13T09:41:55.748Z,4.53
2017-12-13T09:44:23.811Z,4.95
2017-12-13T09:46:51.874Z,6.50
2017-12-13T09:49:19.978Z,3.70
2017-12-13T09:51:48.051Z,4.72
2017-12-13T09:54:16.105Z,4.50
2017-12-13T09:56:44.267Z,4.25
2017-12-13T09:59:12.343Z,4.50
2017-12-13T10:01:40.480Z,4.12
2017-12-13T10:04:08.591Z,4.50
2017-12-13T10:06:36.657Z,3.40
2017-12-13T10:09:04.772Z,4.40
2017-12-13T10:11:33.812Z,3.28
2017-12-13T10:14:01.998Z,4.25
2017-12-13T10:16:30.058Z,4.35
2017-12-13T10:18:58.152Z,4.50
2017-12-13T10:21:26.209Z,3.62
2017-12-13T10:23:55.176Z,3.92
2017-12-13T10:26:23.268Z,3.80
2017-12-13T10:28:51.349Z,3.87
2017-12-13T10:31:19.430Z,3.45
2017-12-13T10:33:47.494Z,4.12
2017-12-13T10:36:15.567Z,3.83
2017-12-13T10:38:43.634Z,2.92
2017-12-13T10:41:11.709Z,3.08
2017-12-13T10:43:39.774Z,3.50
2017-12-13T10:46:07.850Z,3.20
2017-12-13T10:48:36.718Z,3.42
2017-12-13T10:51:04.789Z,3.37
2017-12-13T10:53:42.819Z,3.08
2017-12-13T10:56:10.882Z,2.83
2017-12-13T10:58:40.319Z,3.03
2017-12-13T11:01:08.382Z,2.90
2017-12-13T11:03:36.450Z,3.08
2017-12-13T11:06:05.283Z,3.15
2017-12-13T11:08:33.355Z,3.50
2017-12-13T11:11:01.449Z,3.25
2017-12-13T11:13:29.522Z,3.15
2017-12-13T11:15:57.591Z,3.05
2017-12-13T11:18:25.664Z,3.00
2017-12-13T11:20:53.814Z,2.87
2017-12-13T11:23:21.888Z,3.53
2017-12-13T11:25:49.961Z,3.00
2017-12-13T11:28:18.029Z,2.77
2017-12-13T11:30:46.117Z,3.00
2017-12-13T11:33:14.199Z,3.00
2017-12-13T11:35:43.030Z,2.73
2017-12-13T11:38:11.096Z,2.97
2017-12-13T11:40:39.166Z,2.77
2017-12-13T11:43:07.295Z,3.17
2017-12-13T11:45:35.359Z,2.83
2017-12-13T11:48:03.422Z,2.63
2017-12-13T11:50:31.491Z,2.80
2017-12-13T11:52:59.571Z,2.80
2017-12-13T13:17:25.262Z,3.10
2017-12-13T13:19:53.331Z,2.50
2017-12-13T13:22:21.419Z,2.60
2017-12-13T13:24:49.502Z,2.50
2017-12-13T13:27:17.591Z,3.10
2017-12-13T13:29:46.491Z,3.27
2017-12-13T13:32:14.531Z,3.80
2017-12-13T13:34:42.818Z,2.70
2017-12-13T13:37:10.950Z,3.00
2017-12-13T13:39:39.139Z,3.13
2017-12-13T13:42:07.227Z,3.28
2017-12-13T13:44:35.294Z,3.20
2017-12-13T13:47:03.373Z,3.30
2017-12-13T13:49:31.445Z,3.12
2017-12-13T13:51:59.518Z,3.67
2017-12-13T13:54:27.650Z,2.95
2017-12-13T13:56:56.159Z,3.08
2017-12-13T13:59:24.236Z,2.70
2017-12-13T14:01:54.744Z,3.30
2017-12-13T14:04:23.667Z,3.50
2017-12-13T14:06:51.718Z,2.65
2017-12-13T14:09:19.800Z,3.28
2017-12-13T14:11:47.894Z,2.30
2017-12-13T14:14:16.735Z,2.50
2017-12-13T14:16:44.809Z,2.45
2017-12-13T14:19:12.891Z,3.25
2017-12-13T14:21:40.974Z,3.47
2017-12-13T14:24:09.048Z,2.80
2017-12-13T14:26:37.206Z,3.35
2017-12-13T14:29:05.274Z,2.50
2017-12-13T14:31:33.338Z,2.33
2017-12-13T14:34:01.408Z,2.70
2017-12-13T14:36:29.555Z,2.92
2017-12-13T14:38:57.662Z,2.85
2017-12-13T14:41:25.727Z,3.60
2017-12-13T14:43:53.799Z,3.90
2017-12-13T14:46:21.966Z,2.45
2017-12-13T14:48:50.035Z,2.95
2017-12-13T14:51:20.784Z,2.85
2017-12-13T14:53:49.274Z,2.22
2017-12-13T14:56:18.110Z,2.42
2017-12-13T14:58:46.188Z,2.22
2017-12-13T15:01:14.264Z,2.83
2017-12-13T15:03:42.322Z,2.90
2017-12-13T15:06:10.838Z,5.70
2017-12-13T15:08:38.909Z,2.58
2017-12-13T15:11:06.959Z,3.17
2017-12-13T15:13:35.043Z,3.25
2017-12-13T15:16:03.116Z,2.97
2017-12-13T15:18:31.175Z,4.40
2017-12-13T15:20:59.237Z,3.25
2017-12-13T15:23:27.299Z,3.85
2017-12-13T15:25:55.359Z,3.50
2017-12-13T15:28:23.425Z,3.30
2017-12-13T15:30:51.507Z,5.25
2017-12-13T15:33:19.558Z,2.90
2017-12-13T15:35:47.635Z,5.28
2017-12-13T15:38:15.690Z,7.10
2017-12-13T15:40:43.777Z,2.92
2017-12-13T15:43:11.838Z,3.15
2017-12-13T15:45:39.909Z,2.70
2017-12-13T15:48:07.987Z,5.18
2017-12-13T15:50:36.140Z,5.35
2017-12-13T15:53:04.975Z,4.53
2017-12-13T15:55:33.044Z,3.65
2017-12-13T15:58:01.148Z,3.22
2017-12-13T16:00:29.337Z,3.95
2017-12-13T16:02:58.179Z,5.70
2017-12-13T16:05:26.262Z,5.20
2017-12-13T16:07:54.327Z,4.62
2017-12-13T16:10:22.382Z,2.05
2017-12-13T16:12:50.450Z,7.10
2017-12-13T16:15:18.593Z,6.53
2017-12-13T16:17:47.419Z,4.30
2017-12-13T16:20:15.496Z,3.92
2017-12-13T16:22:43.572Z,5.68
2017-12-13T16:25:11.629Z,7.10
2017-12-13T16:27:39.699Z,2.37
2017-12-13T16:30:07.754Z,3.30
2017-12-13T16:32:35.827Z,10.93
2017-12-13T16:35:04.142Z,4.57
2017-12-13T16:37:32.214Z,11.10
2017-12-13T16:40:00.413Z,7.65
2017-12-13T16:42:29.243Z,3.50
2017-12-13T16:44:57.316Z,7.97
2017-12-13T16:47:25.384Z,7.00
2017-12-13T16:49:54.373Z,8.15
2017-12-13T16:52:22.438Z,4.65
2017-12-13T16:54:50.496Z,6.40
2017-12-13T16:57:19.526Z,4.97
2017-12-13T16:59:47.585Z,3.33
2017-12-13T17:02:15.655Z,4.70
2017-12-13T17:04:43.725Z,3.58
2017-12-13T17:07:11.800Z,3.47
2017-12-13T17:09:39.871Z,3.67
2017-12-13T17:12:07.935Z,2.62
2017-12-13T17:14:36.933Z,3.83
2017-12-13T17:17:05.008Z,3.78
2017-12-13T17:19:33.094Z,4.50
2017-12-13T17:22:01.259Z,2.92
2017-12-13T17:24:29.363Z,2.90
2017-12-13T17:26:58.201Z,3.55
2017-12-13T17:29:26.294Z,4.07
2017-12-13T17:31:54.376Z,3.92
2017-12-13T17:34:22.448Z,3.90
2017-12-13T17:36:50.508Z,4.22
2017-12-13T17:39:18.576Z,4.50
2017-12-13T17:41:46.648Z,4.28
2017-12-13T17:44:14.736Z,4.15
2017-12-13T17:46:42.907Z,5.10
2017-12-13T17:49:10.957Z,5.15
2017-12-13T17:51:39.019Z,4.40
2017-12-13T17:54:07.103Z,4.37
2017-12-13T17:56:35.190Z,4.05
2017-12-13T17:59:03.246Z,3.65
2017-12-13T18:01:31.313Z,4.05
2017-12-13T18:03:59.396Z,4.15
2017-12-13T18:06:27.469Z,4.45
2017-12-13T18:08:55.548Z,7.15
2017-12-13T18:11:23.606Z,5.35
2017-12-13T18:13:51.679Z,4.95
2017-12-13T18:16:19.952Z,4.62
2017-12-13T18:18:48.021Z,3.90
2017-12-13T18:21:16.079Z,4.60
2017-12-13T18:23:44.160Z,4.97
2017-12-13T18:26:12.222Z,3.40
2017-12-13T18:28:40.278Z,4.37
2017-12-13T18:31:08.350Z,3.80
2017-12-13T18:33:36.415Z,3.50
2017-12-13T18:36:04.494Z,3.65
2017-12-13T18:38:32.561Z,3.17
2017-12-13T18:41:00.640Z,3.40
2017-12-13T18:43:28.710Z,3.25
2017-12-13T18:45:56.785Z,3.62
2017-12-13T18:48:24.859Z,3.80
2017-12-13T18:50:53.075Z,4.00
2017-12-13T18:53:21.201Z,4.00
2017-12-13T18:55:49.378Z,3.58
2017-12-13T18:58:17.452Z,4.50
2017-12-13T19:00:45.522Z,3.95
2017-12-13T19:03:13.581Z,4.37
2017-12-13T19:05:41.676Z,3.97
2017-12-13T19:08:09.724Z,4.78
2017-12-13T19:10:37.793Z,4.15
2017-12-13T19:13:05.869Z,4.50
2017-12-13T19:15:33.946Z,5.87
2017-12-13T19:18:02.660Z,5.60
2017-12-13T19:20:31.494Z,4.95
2017-12-13T19:22:59.567Z,4.37
2017-12-13T19:25:27.626Z,5.60
2017-12-13T19:27:55.687Z,7.10
2017-12-13T19:30:23.761Z,5.45
2017-12-13T19:32:51.823Z,5.55
2017-12-13T19:35:19.889Z,6.10
2017-12-13T19:37:48.734Z,5.57
2017-12-13T19:40:16.815Z,7.10
2017-12-13T19:42:44.882Z,5.80
2017-12-13T19:45:13.150Z,7.70
2017-12-13T19:47:41.224Z,6.35
2017-12-13T19:50:09.413Z,6.62
2017-12-13T19:52:38.242Z,8.68
2017-12-13T19:55:06.313Z,6.50
2017-12-13T19:57:34.370Z,6.85
2017-12-13T20:00:02.456Z,6.28
2017-12-13T20:02:30.527Z,7.25
2017-12-13T20:04:58.598Z,8.55
2017-12-13T20:07:26.670Z,6.82
2017-12-13T20:09:54.774Z,8.48
2017-12-13T20:12:22.847Z,8.63
2017-12-13T20:14:51.005Z,9.50
2017-12-13T20:17:19.716Z,8.90
2017-12-13T20:19:47.861Z,8.43
2017-12-13T20:22:15.910Z,8.07
2017-12-13T20:24:44.015Z,7.72
2017-12-13T20:27:12.095Z,7.30
2017-12-13T20:29:40.178Z,7.62
2017-12-13T20:32:09.028Z,7.95
2017-12-13T20:34:37.073Z,7.62
2017-12-13T20:37:05.148Z,7.72
2017-12-13T20:39:33.203Z,7.70
2017-12-13T20:42:01.265Z,7.97
2017-12-13T20:44:29.326Z,7.22
2017-12-13T20:46:58.170Z,8.02
2017-12-13T20:49:26.225Z,8.77
2017-12-13T20:51:54.295Z,8.70
2017-12-13T20:54:22.355Z,7.82
2017-12-13T20:56:50.430Z,8.27
2017-12-13T20:59:18.490Z,5.65
2017-12-13T21:01:46.566Z,8.77
2017-12-13T21:04:14.614Z,9.82
2017-12-13T21:06:42.687Z,8.65
2017-12-13T21:09:10.762Z,9.60
2017-12-13T21:11:39.121Z,7.82
2017-12-13T21:14:07.966Z,8.25
2017-12-13T21:16:36.043Z,7.95
2017-12-13T21:19:04.113Z,7.95
2017-12-13T21:21:32.174Z,8.20
2017-12-13T21:24:00.252Z,7.30
2017-12-13T21:26:28.307Z,7.35
2017-12-13T21:28:56.366Z,6.57
2017-12-13T21:31:24.467Z,6.70
2017-12-13T21:33:52.534Z,5.80
2017-12-13T21:36:20.599Z,5.70
2017-12-13T21:38:48.675Z,6.10
2017-12-13T21:41:16.740Z,5.97
2017-12-13T21:43:44.795Z,6.85
2017-12-13T21:46:12.868Z,5.22
2017-12-13T21:48:40.952Z,5.95
2017-12-13T21:51:09.936Z,5.50
2017-12-13T21:53:38.008Z,6.22
2017-12-13T21:56:11.657Z,5.55
2017-12-13T21:58:40.482Z,6.30
2017-12-13T22:01:08.556Z,5.57
2017-12-13T22:03:36.671Z,5.97
2017-12-13T22:06:04.743Z,5.50
2017-12-13T22:08:32.791Z,5.30
2017-12-13T22:11:00.842Z,5.80
2017-12-13T22:13:28.908Z,6.18
2017-12-13T22:15:56.987Z,6.15
2017-12-13T22:18:25.030Z,7.10
2017-12-13T22:20:53.123Z,5.80
2017-12-13T22:23:21.176Z,6.05
2017-12-13T22:25:49.236Z,5.75
2017-12-13T22:28:17.322Z,5.45
2017-12-13T22:30:45.389Z,5.15
2017-12-13T22:33:13.466Z,6.10
2017-12-13T22:35:42.290Z,6.30
2017-12-13T22:38:10.498Z,5.87
2017-12-13T22:40:38.534Z,5.68
2017-12-13T22:43:06.602Z,6.43
2017-12-13T22:45:34.659Z,6.03
2017-12-13T22:48:02.721Z,5.00
2017-12-13T22:50:30.778Z,5.65
2017-12-13T22:52:58.841Z,4.95
2017-12-13T22:55:26.909Z,6.18
2017-12-13T22:57:54.969Z,4.70
2017-12-13T23:00:23.044Z,5.20
2017-12-13T23:02:51.100Z,4.95
2017-12-13T23:05:20.843Z,6.47
2017-12-13T23:07:49.047Z,5.65
2017-12-13T23:10:17.223Z,8.60
2017-12-13T23:12:45.359Z,8.55
2017-12-13T23:15:13.464Z,7.75
2017-12-13T23:17:41.535Z,4.93
2017-12-13T23:20:09.605Z,4.87
2017-12-13T23:22:37.656Z,4.50
2017-12-13T23:25:05.749Z,4.85
2017-12-13T23:27:33.810Z,4.70
2017-12-13T23:30:01.870Z,4.57
2017-12-13T23:32:29.934Z,4.07
2017-12-13T23:34:57.999Z,4.80
2017-12-13T23:37:26.064Z,4.72
2017-12-13T23:39:54.146Z,7.75
2017-12-13T23:42:22.206Z,9.85
2017-12-13T23:44:50.628Z,13.00
2017-12-13T23:47:18.790Z,5.97
2017-12-13T23:49:46.855Z,9.60
2017-12-13T23:52:14.926Z,5.28
2017-12-13T23:54:42.988Z,5.47
2017-12-13T23:57:11.042Z,9.48
2017-12-13T23:59:39.099Z,7.30
